Terminal Aerodrome Forecast
Issued by NWS Central Illinois

Home | Current Version | Previous Version | Text Only | Print | Product List | Glossary On
Versions: 1 2 3 4 5 6 7 8 9 10 11 12 13 14 15 16 17 18 19 20 21 22 23 24 25 26 27 28 29 30 31 32 33
634
FTUS43 KILX 191208 AAA
TAFPIA
TAF AMD
KPIA 191208Z 1912/2012 16007KT 5SM BR OVC110
     FM191300 15008KT 3SM BR BKN100
     FM191700 12008KT P6SM BKN030
     FM191900 10007KT 3SM -SHRA BR OVC015
     FM200000 08006KT 2SM -SHRA BR OVC003
     FM200800 08004KT P6SM OVC003=

USA.gov is the U.S. government's official web portal to all federal, state and local government web resources and services.